PWSweather.com
Personal Weather Stations
Station Observations
KMNGREYC2
Grey Cloud Island, Grey Cloud Island, MN 55071

Grey Cloud IslandGrey Cloud Island, MN 55071

Lat: 44.799333, Lon: -92.987851

Elevation: 700

Station Type: Davis VP2

www.jagielski.com/weather/conditions.htm

High Low Average
Temperature 14.1°F-9.9°C 0.7°F-17.4°C 6.3°F-14.3°C
Dew Point 2.0°F-16.7°C -10.3°F-23.5°C -2.6°F-19.2°C
Winds 8.0 mph 12.9 kmh Calm Calm 2.0 mph WSW3.2 kmh WSW
Wind Gusts 11.0 mph17.7 kmh 3.0 mph4.8 kmh 7.0 mph11.3 kmh
Humidity 78% 53% 67%
Pressure 30.41 in1029.8 mb 30.32 in1026.8 mb -
Precipitation 0.00 in0.0 mm - -
Hour Temp Dew Point Humidity Winds Wind Gusts Pressure Precip Precip Rate Daily Precip Total
12:00 AM 7.5°F-13.6°C 1.5°F-16.9°C 76% Calm Calm 9.0 mph14.5 kmh 30.38 in1028.8 mb 0.00 in0.0 mm 0.00 in0.0 mm 0.00 in0.0 mm
12:15 AM 7.5°F-13.6°C 1.5°F-16.9°C 76% 1.0 mph N1.6 kmh N 7.0 mph11.3 kmh 30.38 in1028.8 mb 0.00 in0.0 mm 0.00 in0.0 mm 0.00 in0.0 mm
12:30 AM 7.5°F-13.6°C 1.8°F-16.8°C 77% 2.0 mph N3.2 kmh N 7.0 mph11.3 kmh 30.38 in1028.8 mb 0.00 in0.0 mm 0.00 in0.0 mm 0.00 in0.0 mm
12:45 AM 7.4°F-13.7°C 1.7°F-16.8°C 77% 1.0 mph N1.6 kmh N 7.0 mph11.3 kmh 30.38 in1028.8 mb 0.00 in0.0 mm 0.00 in0.0 mm 0.00 in0.0 mm
01:00 AM 7.4°F-13.7°C 2.0°F-16.7°C 78% 2.0 mph NNW3.2 kmh NNW 7.0 mph11.3 kmh 30.38 in1028.8 mb 0.00 in0.0 mm 0.00 in0.0 mm 0.00 in0.0 mm
01:15 AM 7.4°F-13.7°C 1.7°F-16.8°C 77% Calm Calm 8.0 mph12.9 kmh 30.38 in1028.8 mb 0.00 in0.0 mm 0.00 in0.0 mm 0.00 in0.0 mm
01:30 AM 7.5°F-13.6°C 1.8°F-16.8°C 77% Calm Calm 8.0 mph12.9 kmh 30.39 in1029.1 mb 0.00 in0.0 mm 0.00 in0.0 mm 0.00 in0.0 mm
01:45 AM 7.4°F-13.7°C 1.4°F-17.0°C 76% 2.0 mph NNE3.2 kmh NNE 6.0 mph9.7 kmh 30.39 in1029.1 mb 0.00 in0.0 mm 0.00 in0.0 mm 0.00 in0.0 mm
02:00 AM 7.3°F-13.7°C 1.3°F-17.1°C 76% Calm Calm 6.0 mph9.7 kmh 30.39 in1029.1 mb 0.00 in0.0 mm 0.00 in0.0 mm 0.00 in0.0 mm
02:15 AM 7.2°F-13.8°C 1.2°F-17.1°C 76% 1.0 mph N1.6 kmh N 10.0 mph16.1 kmh 30.38 in1028.8 mb 0.00 in0.0 mm 0.00 in0.0 mm 0.00 in0.0 mm
02:30 AM 7.1°F-13.8°C 1.1°F-17.2°C 76% Calm Calm 10.0 mph16.1 kmh 30.38 in1028.8 mb 0.00 in0.0 mm 0.00 in0.0 mm 0.00 in0.0 mm
02:45 AM 7.0°F-13.9°C 1.1°F-17.2°C 76% 5.0 mph NW8.0 kmh NW 6.0 mph9.7 kmh 30.37 in1028.4 mb 0.00 in0.0 mm 0.00 in0.0 mm 0.00 in0.0 mm
03:00 AM 7.1°F-13.8°C 1.1°F-17.2°C 76% Calm Calm 6.0 mph9.7 kmh 30.37 in1028.4 mb 0.00 in0.0 mm 0.00 in0.0 mm 0.00 in0.0 mm
03:15 AM 7.0°F-13.9°C 1.1°F-17.2°C 76% Calm Calm 5.0 mph8.0 kmh 30.37 in1028.4 mb 0.00 in0.0 mm 0.00 in0.0 mm 0.00 in0.0 mm
03:30 AM 6.9°F-13.9°C 0.7°F-17.4°C 75% 3.0 mph NW4.8 kmh NW 8.0 mph12.9 kmh 30.37 in1028.4 mb 0.00 in0.0 mm 0.00 in0.0 mm 0.00 in0.0 mm
03:45 AM 6.7°F-14.1°C 0.5°F-17.5°C 75% 2.0 mph NE3.2 kmh NE 6.0 mph9.7 kmh 30.38 in1028.8 mb 0.00 in0.0 mm 0.00 in0.0 mm 0.00 in0.0 mm
04:00 AM 6.5°F-14.2°C 0.3°F-17.6°C 75% Calm Calm 6.0 mph9.7 kmh 30.38 in1028.8 mb 0.00 in0.0 mm 0.00 in0.0 mm 0.00 in0.0 mm
04:15 AM 6.2°F-14.3°C 0.0°F-17.8°C 75% Calm Calm 6.0 mph9.7 kmh 30.38 in1028.8 mb 0.00 in0.0 mm 0.00 in0.0 mm 0.00 in0.0 mm
04:30 AM 5.9°F-14.5°C -0.3°F-17.9°C 75% 1.0 mph N1.6 kmh N 7.0 mph11.3 kmh 30.38 in1028.8 mb 0.00 in0.0 mm 0.00 in0.0 mm 0.00 in0.0 mm
04:45 AM 5.6°F-14.7°C -0.9°F-18.3°C 74% Calm Calm 8.0 mph12.9 kmh 30.38 in1028.8 mb 0.00 in0.0 mm 0.00 in0.0 mm 0.00 in0.0 mm
05:00 AM 5.1°F-14.9°C -1.4°F-18.6°C 74% 1.0 mph N1.6 kmh N 8.0 mph12.9 kmh 30.37 in1028.4 mb 0.00 in0.0 mm 0.00 in0.0 mm 0.00 in0.0 mm
05:15 AM 4.8°F-15.1°C -1.7°F-18.7°C 74% Calm Calm 3.0 mph4.8 kmh 30.37 in1028.4 mb 0.00 in0.0 mm 0.00 in0.0 mm 0.00 in0.0 mm
05:30 AM 4.5°F-15.3°C -1.9°F-18.8°C 74% 1.0 mph NW1.6 kmh NW 7.0 mph11.3 kmh 30.37 in1028.4 mb 0.00 in0.0 mm 0.00 in0.0 mm 0.00 in0.0 mm
05:45 AM 4.2°F-15.4°C -2.0°F-18.9°C 75% 1.0 mph NW1.6 kmh NW 6.0 mph9.7 kmh 30.37 in1028.4 mb 0.00 in0.0 mm 0.00 in0.0 mm 0.00 in0.0 mm
06:00 AM 3.9°F-15.6°C -2.2°F-19.0°C 75% 4.0 mph NW6.4 kmh NW 6.0 mph9.7 kmh 30.37 in1028.4 mb 0.00 in0.0 mm 0.00 in0.0 mm 0.00 in0.0 mm
06:15 AM 3.6°F-15.8°C -2.5°F-19.2°C 75% 5.0 mph NNW8.0 kmh NNW 6.0 mph9.7 kmh 30.37 in1028.4 mb 0.00 in0.0 mm 0.00 in0.0 mm 0.00 in0.0 mm
06:30 AM 3.3°F-15.9°C -2.8°F-19.3°C 75% Calm Calm 7.0 mph11.3 kmh 30.38 in1028.8 mb 0.00 in0.0 mm 0.00 in0.0 mm 0.00 in0.0 mm
06:45 AM 3.0°F-16.1°C -3.1°F-19.5°C 75% 1.0 mph N1.6 kmh N 8.0 mph12.9 kmh 30.38 in1028.8 mb 0.00 in0.0 mm 0.00 in0.0 mm 0.00 in0.0 mm
07:00 AM 2.7°F-16.3°C -3.4°F-19.7°C 75% Calm Calm 8.0 mph12.9 kmh 30.39 in1029.1 mb 0.00 in0.0 mm 0.00 in0.0 mm 0.00 in0.0 mm
07:15 AM 2.4°F-16.4°C -3.7°F-19.8°C 75% Calm Calm 5.0 mph8.0 kmh 30.39 in1029.1 mb 0.00 in0.0 mm 0.00 in0.0 mm 0.00 in0.0 mm
07:30 AM 2.0°F-16.7°C -4.1°F-20.1°C 75% Calm Calm 6.0 mph9.7 kmh 30.39 in1029.1 mb 0.00 in0.0 mm 0.00 in0.0 mm 0.00 in0.0 mm
07:45 AM 1.8°F-16.8°C -4.0°F-20.0°C 76% 2.0 mph NW3.2 kmh NW 8.0 mph12.9 kmh 30.40 in1029.5 mb 0.00 in0.0 mm 0.00 in0.0 mm 0.00 in0.0 mm
08:00 AM 1.6°F-16.9°C -4.2°F-20.1°C 76% 2.0 mph N3.2 kmh N 8.0 mph12.9 kmh 30.39 in1029.1 mb 0.00 in0.0 mm 0.00 in0.0 mm 0.00 in0.0 mm
08:15 AM 1.4°F-17.0°C -4.4°F-20.2°C 76% 1.0 mph N1.6 kmh N 8.0 mph12.9 kmh 30.40 in1029.5 mb 0.00 in0.0 mm 0.00 in0.0 mm 0.00 in0.0 mm
08:30 AM 1.2°F-17.1°C -4.6°F-20.3°C 76% 2.0 mph NNW3.2 kmh NNW 8.0 mph12.9 kmh 30.40 in1029.5 mb 0.00 in0.0 mm 0.00 in0.0 mm 0.00 in0.0 mm
08:45 AM 1.0°F-17.2°C -4.5°F-20.3°C 77% Calm Calm 4.0 mph6.4 kmh 30.40 in1029.5 mb 0.00 in0.0 mm 0.00 in0.0 mm 0.00 in0.0 mm
09:00 AM 0.9°F-17.3°C -4.6°F-20.3°C 77% Calm Calm 4.0 mph6.4 kmh 30.41 in1029.8 mb 0.00 in0.0 mm 0.00 in0.0 mm 0.00 in0.0 mm
09:15 AM 0.8°F-17.3°C -4.4°F-20.2°C 78% Calm Calm 5.0 mph8.0 kmh 30.41 in1029.8 mb 0.00 in0.0 mm 0.00 in0.0 mm 0.00 in0.0 mm
09:30 AM 0.8°F-17.3°C -4.4°F-20.2°C 78% Calm Calm 5.0 mph8.0 kmh 30.41 in1029.8 mb 0.00 in0.0 mm 0.00 in0.0 mm 0.00 in0.0 mm
09:45 AM 0.8°F-17.3°C -4.4°F-20.2°C 78% 1.0 mph N1.6 kmh N 5.0 mph8.0 kmh 30.41 in1029.8 mb 0.00 in0.0 mm 0.00 in0.0 mm 0.00 in0.0 mm
10:00 AM 1.0°F-17.2°C -4.2°F-20.1°C 78% 2.0 mph NW3.2 kmh NW 7.0 mph11.3 kmh 30.41 in1029.8 mb 0.00 in0.0 mm 0.00 in0.0 mm 0.00 in0.0 mm
10:15 AM 1.3°F-17.1°C -4.2°F-20.1°C 77% 2.0 mph NW3.2 kmh NW 6.0 mph9.7 kmh 30.41 in1029.8 mb 0.00 in0.0 mm 0.00 in0.0 mm 0.00 in0.0 mm
10:30 AM 1.8°F-16.8°C -3.7°F-19.8°C 77% 1.0 mph NW1.6 kmh NW 7.0 mph11.3 kmh 30.40 in1029.5 mb 0.00 in0.0 mm 0.00 in0.0 mm 0.00 in0.0 mm
10:45 AM 2.4°F-16.4°C -3.2°F-19.6°C 77% 2.0 mph NW3.2 kmh NW 8.0 mph12.9 kmh 30.41 in1029.8 mb 0.00 in0.0 mm 0.00 in0.0 mm 0.00 in0.0 mm
11:00 AM 2.9°F-16.2°C -2.9°F-19.4°C 76% 1.0 mph N1.6 kmh N 8.0 mph12.9 kmh 30.40 in1029.5 mb 0.00 in0.0 mm 0.00 in0.0 mm 0.00 in0.0 mm
11:15 AM 3.6°F-15.8°C -2.5°F-19.2°C 75% Calm Calm 7.0 mph11.3 kmh 30.39 in1029.1 mb 0.00 in0.0 mm 0.00 in0.0 mm 0.00 in0.0 mm
11:30 AM 4.5°F-15.3°C -1.9°F-18.8°C 74% 3.0 mph NNW4.8 kmh NNW 7.0 mph11.3 kmh 30.39 in1029.1 mb 0.00 in0.0 mm 0.00 in0.0 mm 0.00 in0.0 mm
11:45 AM 5.8°F-14.6°C -1.0°F-18.3°C 73% 2.0 mph NNW3.2 kmh NNW 8.0 mph12.9 kmh 30.40 in1029.5 mb 0.00 in0.0 mm 0.00 in0.0 mm 0.00 in0.0 mm
12:00 PM 7.3°F-13.7°C -0.1°F-17.8°C 71% Calm Calm 8.0 mph12.9 kmh 30.39 in1029.1 mb 0.00 in0.0 mm 0.00 in0.0 mm 0.00 in0.0 mm
12:15 PM 8.3°F-13.2°C -0.1°F-17.8°C 68% 4.0 mph W6.4 kmh W 11.0 mph17.7 kmh 30.39 in1029.1 mb 0.00 in0.0 mm 0.00 in0.0 mm 0.00 in0.0 mm
12:30 PM 8.3°F-13.2°C -0.4°F-18.0°C 67% Calm Calm 11.0 mph17.7 kmh 30.39 in1029.1 mb 0.00 in0.0 mm 0.00 in0.0 mm 0.00 in0.0 mm
12:45 PM 9.1°F-12.7°C 0.7°F-17.4°C 68% 3.0 mph NW4.8 kmh NW 8.0 mph12.9 kmh 30.39 in1029.1 mb 0.00 in0.0 mm 0.00 in0.0 mm 0.00 in0.0 mm
01:00 PM 9.6°F-12.4°C 0.5°F-17.5°C 66% 3.0 mph N4.8 kmh N 8.0 mph12.9 kmh 30.38 in1028.8 mb 0.00 in0.0 mm 0.00 in0.0 mm 0.00 in0.0 mm
01:15 PM 9.9°F-12.3°C 1.2°F-17.1°C 67% 2.0 mph N3.2 kmh N 8.0 mph12.9 kmh 30.38 in1028.8 mb 0.00 in0.0 mm 0.00 in0.0 mm 0.00 in0.0 mm
01:30 PM 10.5°F-11.9°C 1.7°F-16.8°C 67% 5.0 mph NW8.0 kmh NW 8.0 mph12.9 kmh 30.37 in1028.4 mb 0.00 in0.0 mm 0.00 in0.0 mm 0.00 in0.0 mm
01:45 PM 11.0°F-11.7°C 1.6°F-16.9°C 65% 3.0 mph WNW4.8 kmh WNW 7.0 mph11.3 kmh 30.36 in1028.1 mb 0.00 in0.0 mm 0.00 in0.0 mm 0.00 in0.0 mm
02:00 PM 11.3°F-11.5°C 1.8°F-16.8°C 65% 1.0 mph WNW1.6 kmh WNW 10.0 mph16.1 kmh 30.36 in1028.1 mb 0.00 in0.0 mm 0.00 in0.0 mm 0.00 in0.0 mm
02:15 PM 11.7°F-11.3°C 1.6°F-16.9°C 63% 3.0 mph NW4.8 kmh NW 8.0 mph12.9 kmh 30.35 in1027.8 mb 0.00 in0.0 mm 0.00 in0.0 mm 0.00 in0.0 mm
02:30 PM 12.2°F-11.0°C 1.7°F-16.8°C 62% 6.0 mph NW9.7 kmh NW 9.0 mph14.5 kmh 30.35 in1027.8 mb 0.00 in0.0 mm 0.00 in0.0 mm 0.00 in0.0 mm
02:45 PM 12.5°F-10.8°C 2.0°F-16.7°C 62% 5.0 mph WNW8.0 kmh WNW 11.0 mph17.7 kmh 30.36 in1028.1 mb 0.00 in0.0 mm 0.00 in0.0 mm 0.00 in0.0 mm
03:00 PM 13.1°F-10.5°C 1.8°F-16.8°C 60% 1.0 mph WNW1.6 kmh WNW 11.0 mph17.7 kmh 30.36 in1028.1 mb 0.00 in0.0 mm 0.00 in0.0 mm 0.00 in0.0 mm
03:15 PM 13.9°F-10.1°C 1.9°F-16.7°C 58% 1.0 mph W1.6 kmh W 10.0 mph16.1 kmh 30.35 in1027.8 mb 0.00 in0.0 mm 0.00 in0.0 mm 0.00 in0.0 mm
03:30 PM 13.9°F-10.1°C 1.5°F-16.9°C 57% 4.0 mph NNW6.4 kmh NNW 10.0 mph16.1 kmh 30.34 in1027.4 mb 0.00 in0.0 mm 0.00 in0.0 mm 0.00 in0.0 mm
03:45 PM 14.0°F-10.0°C 1.2°F-17.1°C 56% 5.0 mph WNW8.0 kmh WNW 9.0 mph14.5 kmh 30.34 in1027.4 mb 0.00 in0.0 mm 0.00 in0.0 mm 0.00 in0.0 mm
04:00 PM 14.1°F-9.9°C 0.5°F-17.5°C 54% 8.0 mph WNW12.9 kmh WNW 11.0 mph17.7 kmh 30.34 in1027.4 mb 0.00 in0.0 mm 0.00 in0.0 mm 0.00 in0.0 mm
04:15 PM 13.8°F-10.1°C 0.2°F-17.7°C 54% Calm Calm 9.0 mph14.5 kmh 30.34 in1027.4 mb 0.00 in0.0 mm 0.00 in0.0 mm 0.00 in0.0 mm
04:30 PM 13.5°F-10.3°C 0.0°F-17.8°C 54% Calm Calm 9.0 mph14.5 kmh 30.33 in1027.1 mb 0.00 in0.0 mm 0.00 in0.0 mm 0.00 in0.0 mm
04:45 PM 13.0°F-10.6°C -0.5°F-18.1°C 54% 1.0 mph NW1.6 kmh NW 8.0 mph12.9 kmh 30.32 in1026.8 mb 0.00 in0.0 mm 0.00 in0.0 mm 0.00 in0.0 mm
05:00 PM 12.6°F-10.8°C -0.5°F-18.1°C 55% 1.0 mph NW1.6 kmh NW 8.0 mph12.9 kmh 30.32 in1026.8 mb 0.00 in0.0 mm 0.00 in0.0 mm 0.00 in0.0 mm
05:15 PM 12.3°F-10.9°C -0.4°F-18.0°C 56% 2.0 mph NW3.2 kmh NW 8.0 mph12.9 kmh 30.33 in1027.1 mb 0.00 in0.0 mm 0.00 in0.0 mm 0.00 in0.0 mm
05:30 PM 11.6°F-11.3°C -1.1°F-18.4°C 56% 3.0 mph NW4.8 kmh NW 8.0 mph12.9 kmh 30.33 in1027.1 mb 0.00 in0.0 mm 0.00 in0.0 mm 0.00 in0.0 mm
05:45 PM 11.1°F-11.6°C -1.5°F-18.6°C 56% 2.0 mph WNW3.2 kmh WNW 7.0 mph11.3 kmh 30.33 in1027.1 mb 0.00 in0.0 mm 0.00 in0.0 mm 0.00 in0.0 mm
06:00 PM 10.7°F-11.8°C -1.2°F-18.4°C 58% Calm Calm 7.0 mph11.3 kmh 30.33 in1027.1 mb 0.00 in0.0 mm 0.00 in0.0 mm 0.00 in0.0 mm
06:15 PM 10.2°F-12.1°C -1.3°F-18.5°C 59% Calm Calm 4.0 mph6.4 kmh 30.33 in1027.1 mb 0.00 in0.0 mm 0.00 in0.0 mm 0.00 in0.0 mm
06:30 PM 9.6°F-12.4°C -1.5°F-18.6°C 60% 1.0 mph NW1.6 kmh NW 6.0 mph9.7 kmh 30.33 in1027.1 mb 0.00 in0.0 mm 0.00 in0.0 mm 0.00 in0.0 mm
06:45 PM 9.2°F-12.7°C -1.9°F-18.8°C 60% Calm Calm 6.0 mph9.7 kmh 30.33 in1027.1 mb 0.00 in0.0 mm 0.00 in0.0 mm 0.00 in0.0 mm
07:00 PM 8.8°F-12.9°C -1.9°F-18.8°C 61% 3.0 mph NW4.8 kmh NW 8.0 mph12.9 kmh 30.33 in1027.1 mb 0.00 in0.0 mm 0.00 in0.0 mm 0.00 in0.0 mm
07:15 PM 8.5°F-13.1°C -2.9°F-19.4°C 59% 2.0 mph NW3.2 kmh NW 6.0 mph9.7 kmh 30.34 in1027.4 mb 0.00 in0.0 mm 0.00 in0.0 mm 0.00 in0.0 mm
07:30 PM 8.2°F-13.2°C -3.9°F-19.9°C 57% 1.0 mph NW1.6 kmh NW 8.0 mph12.9 kmh 30.34 in1027.4 mb 0.00 in0.0 mm 0.00 in0.0 mm 0.00 in0.0 mm
07:45 PM 7.7°F-13.5°C -5.1°F-20.6°C 55% 2.0 mph N3.2 kmh N 8.0 mph12.9 kmh 30.35 in1027.8 mb 0.00 in0.0 mm 0.00 in0.0 mm 0.00 in0.0 mm
08:00 PM 7.3°F-13.7°C -5.1°F-20.6°C 56% 2.0 mph NW3.2 kmh NW 8.0 mph12.9 kmh 30.35 in1027.8 mb 0.00 in0.0 mm 0.00 in0.0 mm 0.00 in0.0 mm
08:15 PM 6.9°F-13.9°C -5.8°F-21.0°C 55% 3.0 mph NW4.8 kmh NW 6.0 mph9.7 kmh 30.35 in1027.8 mb 0.00 in0.0 mm 0.00 in0.0 mm 0.00 in0.0 mm
08:30 PM 6.5°F-14.2°C -6.2°F-21.2°C 55% 2.0 mph N3.2 kmh N 7.0 mph11.3 kmh 30.36 in1028.1 mb 0.00 in0.0 mm 0.00 in0.0 mm 0.00 in0.0 mm
08:45 PM 6.0°F-14.4°C -7.1°F-21.7°C 54% 2.0 mph N3.2 kmh N 5.0 mph8.0 kmh 30.36 in1028.1 mb 0.00 in0.0 mm 0.00 in0.0 mm 0.00 in0.0 mm
09:00 PM 5.6°F-14.7°C -7.8°F-22.1°C 53% 6.0 mph NW9.7 kmh NW 6.0 mph9.7 kmh 30.37 in1028.4 mb 0.00 in0.0 mm 0.00 in0.0 mm 0.00 in0.0 mm
09:15 PM 5.2°F-14.9°C -8.2°F-22.3°C 53% Calm Calm 7.0 mph11.3 kmh 30.36 in1028.1 mb 0.00 in0.0 mm 0.00 in0.0 mm 0.00 in0.0 mm
09:30 PM 4.7°F-15.2°C -7.9°F-22.2°C 55% Calm Calm 7.0 mph11.3 kmh 30.36 in1028.1 mb 0.00 in0.0 mm 0.00 in0.0 mm 0.00 in0.0 mm
09:45 PM 4.3°F-15.4°C -8.7°F-22.6°C 54% Calm Calm 5.0 mph8.0 kmh 30.35 in1027.8 mb 0.00 in0.0 mm 0.00 in0.0 mm 0.00 in0.0 mm
10:00 PM 4.0°F-15.6°C -8.9°F-22.7°C 54% 3.0 mph NNE4.8 kmh NNE 6.0 mph9.7 kmh 30.35 in1027.8 mb 0.00 in0.0 mm 0.00 in0.0 mm 0.00 in0.0 mm
10:15 PM 3.7°F-15.7°C -9.2°F-22.9°C 54% 1.0 mph NW1.6 kmh NW 6.0 mph9.7 kmh 30.35 in1027.8 mb 0.00 in0.0 mm 0.00 in0.0 mm 0.00 in0.0 mm
10:30 PM 3.3°F-15.9°C -9.2°F-22.9°C 55% 3.0 mph NNW4.8 kmh NNW 8.0 mph12.9 kmh 30.35 in1027.8 mb 0.00 in0.0 mm 0.00 in0.0 mm 0.00 in0.0 mm
10:45 PM 2.9°F-16.2°C -9.2°F-22.9°C 56% Calm Calm 6.0 mph9.7 kmh 30.35 in1027.8 mb 0.00 in0.0 mm 0.00 in0.0 mm 0.00 in0.0 mm
11:00 PM 2.4°F-16.4°C -9.7°F-23.2°C 56% 2.0 mph NNE3.2 kmh NNE 7.0 mph11.3 kmh 30.35 in1027.8 mb 0.00 in0.0 mm 0.00 in0.0 mm 0.00 in0.0 mm
11:15 PM 2.1°F-16.6°C -9.6°F-23.1°C 57% Calm Calm 8.0 mph12.9 kmh 30.36 in1028.1 mb 0.00 in0.0 mm 0.00 in0.0 mm 0.00 in0.0 mm
11:30 PM 1.8°F-16.8°C -9.6°F-23.1°C 58% 2.0 mph N3.2 kmh N 8.0 mph12.9 kmh 30.35 in1027.8 mb 0.00 in0.0 mm 0.00 in0.0 mm 0.00 in0.0 mm
11:45 PM 1.5°F-16.9°C -9.8°F-23.2°C 58% Calm Calm 4.0 mph6.4 kmh 30.36 in1028.1 mb 0.00 in0.0 mm 0.00 in0.0 mm 0.00 in0.0 mm